Time;durP1;ratioP1;P1;durP2;ratioP2;P2;SDS_P1;SDS_P2;PMS_P1;PMS_P2;Temp;Humidity;BMP_temperature;BMP_pressure;BME280_temperature;BME280_humidity;BME280_pressure;Samples;Min_cycle;Max_cycle;Signal;HPM_P1;HPM_P2
2023/12/01 00:01:03;;;;;;;24.35;16.15;;;1.20;99.90;;;;;;5030652;28;20124;-67
2023/12/01 00:03:30;;;;;;;22.05;15.70;;;1.20;99.90;;;;;;5034408;28;20037;-67
2023/12/01 00:06:02;;;;;;;24.80;16.40;;;1.30;99.90;;;;;;5052589;28;20052;-67
2023/12/01 00:08:34;;;;;;;23.23;15.80;;;1.20;99.90;;;;;;5052799;28;20099;-67
2023/12/01 00:11:06;;;;;;;22.38;14.73;;;1.20;99.90;;;;;;5038992;28;20065;-67
2023/12/01 00:13:33;;;;;;;23.85;15.45;;;1.20;99.90;;;;;;5061780;28;20045;-67
2023/12/01 00:16:05;;;;;;;20.63;14.30;;;1.20;99.90;;;;;;5044222;28;20136;-67
2023/12/01 00:18:37;;;;;;;21.10;14.23;;;1.20;99.90;;;;;;5036163;28;20649;-67
2023/12/01 00:21:10;;;;;;;20.77;13.60;;;1.30;99.90;;;;;;5028706;28;20052;-67
2023/12/01 00:23:41;;;;;;;22.58;14.73;;;1.20;99.90;;;;;;5050866;28;20517;-67
2023/12/01 00:26:13;;;;;;;21.05;13.45;;;1.20;99.90;;;;;;5053163;28;20041;-67
2023/12/01 00:28:52;;;;;;;21.55;13.82;;;1.20;99.90;;;;;;5051428;28;20159;-67
2023/12/01 00:31:24;;;;;;;22.30;14.30;;;1.20;99.90;;;;;;5031777;28;20393;-67
2023/12/01 00:33:56;;;;;;;20.92;13.15;;;1.20;99.90;;;;;;5045619;28;20064;-67
2023/12/01 00:36:28;;;;;;;21.85;14.30;;;1.30;99.90;;;;;;5036879;28;20049;-67
2023/12/01 00:39:00;;;;;;;22.15;14.07;;;1.30;99.90;;;;;;5042478;28;20119;-67
2023/12/01 00:41:32;;;;;;;20.38;13.25;;;1.30;99.90;;;;;;5060064;28;20033;-67
2023/12/01 00:44:04;;;;;;;17.20;12.23;;;1.30;99.90;;;;;;5055562;28;20497;-67
2023/12/01 00:46:36;;;;;;;18.92;13.00;;;1.30;99.90;;;;;;5045038;28;20052;-67
2023/12/01 00:49:08;;;;;;;21.13;13.82;;;1.30;99.90;;;;;;5047612;28;20049;-67
2023/12/01 00:51:43;;;;;;;19.67;13.32;;;1.30;99.90;;;;;;5042739;28;20052;-67
2023/12/01 00:54:15;;;;;;;18.73;12.63;;;1.20;99.90;;;;;;5049394;28;20454;-67
2023/12/01 00:56:42;;;;;;;20.20;12.57;;;1.20;99.90;;;;;;5051349;28;20143;-67
2023/12/01 00:59:09;;;;;;;19.75;12.88;;;1.20;99.90;;;;;;5034847;28;20462;-67
2023/12/01 01:01:41;;;;;;;19.33;13.02;;;1.20;99.90;;;;;;5035762;28;20079;-67
2023/12/01 01:04:08;;;;;;;19.52;12.13;;;1.10;99.90;;;;;;5033214;28;20143;-67
2023/12/01 01:06:39;;;;;;;17.88;12.25;;;1.20;99.90;;;;;;5053190;28;20102;-67
2023/12/01 01:09:11;;;;;;;19.05;13.07;;;1.20;99.90;;;;;;5046041;28;20133;-67
2023/12/01 01:11:38;;;;;;;19.65;13.43;;;1.20;99.90;;;;;;5041485;28;20052;-67
2023/12/01 01:14:10;;;;;;;20.65;13.45;;;1.20;99.90;;;;;;5042402;28;20523;-67
2023/12/01 01:16:37;;;;;;;23.10;13.45;;;1.20;99.90;;;;;;5044670;28;20056;-67
2023/12/01 01:19:09;;;;;;;21.88;13.57;;;1.10;99.90;;;;;;5035054;28;20067;-67
2023/12/01 01:21:41;;;;;;;21.45;13.30;;;1.10;99.90;;;;;;5026863;28;20045;-67
2023/12/01 01:24:08;;;;;;;19.08;13.43;;;1.10;99.90;;;;;;5023222;28;20043;-67
2023/12/01 01:26:40;;;;;;;19.20;13.73;;;1.10;99.90;;;;;;5026549;28;20049;-67
2023/12/01 01:29:07;;;;;;;21.60;14.25;;;1.10;99.90;;;;;;5045912;28;20036;-67
2023/12/01 01:35:27;;;;;;;18.35;13.05;;;1.00;99.90;;;;;;5043266;28;20065;-66
2023/12/01 01:37:59;;;;;;;19.05;13.20;;;1.00;99.90;;;;;;5037968;28;20055;-65
2023/12/01 01:40:31;;;;;;;21.85;13.95;;;1.00;99.90;;;;;;5023364;28;20049;-66
2023/12/01 01:43:03;;;;;;;20.65;14.15;;;1.00;99.90;;;;;;5059533;28;20413;-66
2023/12/01 01:45:35;;;;;;;20.02;13.80;;;1.00;99.90;;;;;;5017098;28;20486;-66
2023/12/01 01:48:07;;;;;;;20.38;13.70;;;1.00;99.90;;;;;;5044179;28;20043;-66
2023/12/01 01:50:39;;;;;;;20.50;12.85;;;1.00;99.90;;;;;;5043025;28;20537;-66
2023/12/01 01:53:11;;;;;;;20.13;13.18;;;1.00;99.90;;;;;;5042625;28;20036;-66
2023/12/01 01:55:43;;;;;;;18.90;13.23;;;1.00;99.90;;;;;;5041739;28;20044;-66
2023/12/01 01:58:15;;;;;;;19.38;13.07;;;1.10;99.90;;;;;;5038471;28;20460;-67
2023/12/01 02:00:49;;;;;;;17.98;12.18;;;1.10;99.90;;;;;;5038337;28;20044;-66
2023/12/01 02:03:23;;;;;;;17.90;12.73;;;1.10;99.90;;;;;;5046921;28;20048;-66
2023/12/01 02:05:55;;;;;;;20.48;13.02;;;1.10;99.90;;;;;;5070714;28;20496;-66
2023/12/01 02:08:29;;;;;;;17.48;12.25;;;1.10;99.90;;;;;;5068060;28;20095;-66
2023/12/01 02:11:00;;;;;;;18.88;12.70;;;1.10;99.90;;;;;;5036009;28;20139;-66
2023/12/01 02:13:28;;;;;;;18.10;12.68;;;1.10;99.90;;;;;;5039310;28;20107;-66
2023/12/01 02:16:00;;;;;;;15.55;11.45;;;1.10;99.90;;;;;;5039983;28;20058;-66
2023/12/01 02:18:35;;;;;;;17.65;11.95;;;1.10;99.90;;;;;;5060227;28;20051;-66
2023/12/01 02:21:07;;;;;;;20.40;11.90;;;1.10;99.90;;;;;;5048299;28;20071;-67
2023/12/01 02:23:39;;;;;;;17.48;12.82;;;1.20;99.90;;;;;;5056179;28;20045;-66
2023/12/01 02:26:11;;;;;;;17.95;12.90;;;1.20;99.90;;;;;;5057526;28;20059;-66
2023/12/01 02:28:42;;;;;;;16.00;11.13;;;1.20;99.90;;;;;;5066073;28;20045;-67
2023/12/01 02:31:09;;;;;;;14.45;10.85;;;1.20;99.90;;;;;;5033804;28;20391;-66
2023/12/01 02:33:41;;;;;;;17.10;11.73;;;1.20;99.90;;;;;;5042990;28;20049;-66
2023/12/01 02:36:14;;;;;;;16.15;11.50;;;1.10;99.90;;;;;;5033790;28;20513;-66
2023/12/01 02:38:46;;;;;;;14.97;10.73;;;1.10;99.90;;;;;;5029343;28;20057;-66
2023/12/01 02:41:18;;;;;;;15.38;11.15;;;1.10;99.90;;;;;;5034458;28;20041;-67
2023/12/01 02:43:51;;;;;;;15.48;11.07;;;1.10;99.90;;;;;;5038524;28;20067;-67
2023/12/01 02:46:22;;;;;;;12.63;9.65;;;1.10;99.90;;;;;;5045190;28;20059;-66
2023/12/01 02:48:54;;;;;;;16.00;11.48;;;1.10;99.90;;;;;;5038741;28;20041;-66
2023/12/01 02:51:25;;;;;;;16.33;11.02;;;1.10;99.90;;;;;;5043418;28;20060;-66
2023/12/01 02:53:57;;;;;;;16.33;11.90;;;1.10;99.90;;;;;;5046387;28;20413;-66
2023/12/01 02:56:30;;;;;;;18.70;12.25;;;1.10;99.90;;;;;;5057232;28;20078;-66
2023/12/01 02:58:57;;;;;;;18.67;13.55;;;1.20;99.90;;;;;;5039624;28;20041;-66
2023/12/01 03:01:29;;;;;;;18.63;11.80;;;1.20;99.90;;;;;;5025136;28;20047;-66
2023/12/01 03:03:56;;;;;;;15.35;11.30;;;1.20;99.90;;;;;;5022394;28;20043;-66
2023/12/01 03:06:27;;;;;;;16.75;11.27;;;1.20;99.90;;;;;;5042234;28;20439;-66
2023/12/01 03:08:54;;;;;;;15.80;10.98;;;1.20;99.90;;;;;;5032078;28;20045;-66
2023/12/01 03:11:26;;;;;;;14.70;10.73;;;1.20;99.90;;;;;;5033394;28;20513;-66
2023/12/01 03:13:58;;;;;;;14.98;10.60;;;1.20;99.90;;;;;;5036861;28;20505;-66
2023/12/01 03:16:25;;;;;;;16.42;11.10;;;1.10;99.90;;;;;;5056761;28;20036;-66
2023/12/01 03:18:57;;;;;;;14.80;10.32;;;1.10;99.90;;;;;;5057366;28;20051;-67
2023/12/01 03:21:29;;;;;;;15.05;10.55;;;1.10;99.90;;;;;;5041741;28;20041;-66
2023/12/01 03:23:55;;;;;;;17.10;10.98;;;1.10;99.90;;;;;;5058746;28;20096;-66
2023/12/01 03:26:27;;;;;;;16.25;11.05;;;1.10;99.90;;;;;;5044266;28;20049;-66
2023/12/01 03:29:00;;;;;;;16.75;11.20;;;1.10;99.90;;;;;;5035806;28;20056;-66
2023/12/01 03:31:32;;;;;;;16.23;10.90;;;1.10;99.90;;;;;;5037384;28;20061;-66
2023/12/01 03:34:05;;;;;;;17.27;11.65;;;1.10;99.90;;;;;;5040341;28;20531;-66
2023/12/01 03:36:37;;;;;;;;;;;1.10;99.90;;;;;;5050465;28;20045;-66
2023/12/01 03:39:09;;;;;;;17.98;11.15;;;1.10;99.90;;;;;;5042209;28;19991;-66
2023/12/01 03:41:36;;;;;;;16.35;11.38;;;1.10;99.90;;;;;;5034908;28;20039;-66
2023/12/01 03:44:08;;;;;;;18.02;12.05;;;1.10;99.90;;;;;;5022605;28;20064;-66
2023/12/01 03:46:36;;;;;;;18.55;12.90;;;1.10;99.90;;;;;;5060541;28;20041;-67
2023/12/01 03:49:03;;;;;;;18.80;12.48;;;1.10;99.90;;;;;;5040340;28;20068;-66
2023/12/01 03:51:35;;;;;;;16.35;11.40;;;1.10;99.90;;;;;;5039611;28;20080;-66
2023/12/01 03:54:02;;;;;;;16.90;11.00;;;1.10;99.90;;;;;;5060394;28;20107;-66
2023/12/01 03:56:36;;;;;;;17.08;11.80;;;1.10;99.90;;;;;;5042608;28;20135;-66
2023/12/01 03:59:09;;;;;;;16.63;11.50;;;1.10;99.90;;;;;;5017403;28;20049;-66
2023/12/01 04:01:38;;;;;;;19.73;12.02;;;1.10;99.90;;;;;;5037336;28;20119;-66
2023/12/01 04:04:10;;;;;;;17.20;11.45;;;1.10;99.90;;;;;;5034041;28;20539;-66
2023/12/01 04:06:42;;;;;;;19.08;11.52;;;1.10;99.90;;;;;;5033056;28;20043;-66
2023/12/01 04:09:16;;;;;;;19.23;12.05;;;1.10;99.90;;;;;;5028346;28;20038;-66
2023/12/01 04:11:48;;;;;;;;;;;1.10;99.90;;;;;;5034858;28;20041;-66
2023/12/01 04:14:20;;;;;;;21.55;12.02;;;1.10;99.90;;;;;;5051326;28;19921;-66
2023/12/01 04:16:47;;;;;;;22.52;12.15;;;1.20;99.90;;;;;;5055771;28;20127;-66
2023/12/01 04:19:19;;;;;;;18.77;11.15;;;1.20;99.90;;;;;;5039890;28;20036;-66
2023/12/01 04:21:52;;;;;;;19.63;12.10;;;1.20;99.90;;;;;;5055018;28;20048;-66
2023/12/01 04:24:24;;;;;;;18.10;10.83;;;1.20;99.90;;;;;;5026299;28;20510;-66
2023/12/01 04:26:56;;;;;;;20.42;12.10;;;1.10;99.90;;;;;;5028382;28;20326;-66
2023/12/01 04:29:29;;;;;;;18.45;11.32;;;1.20;99.90;;;;;;5039335;28;20073;-66
2023/12/01 04:32:01;;;;;;;18.05;11.63;;;1.10;99.90;;;;;;5037683;28;20055;-66
2023/12/01 04:34:28;;;;;;;19.60;11.80;;;1.10;99.90;;;;;;5053439;28;20061;-66
2023/12/01 04:37:00;;;;;;;20.92;10.95;;;1.10;99.90;;;;;;5048553;28;20119;-66
2023/12/01 04:39:32;;;;;;;19.42;11.90;;;1.10;99.90;;;;;;5050694;28;20037;-66
2023/12/01 04:42:04;;;;;;;21.13;12.25;;;1.10;99.90;;;;;;5044807;28;20096;-66
2023/12/01 04:44:36;;;;;;;24.48;14.35;;;1.10;99.90;;;;;;5030830;28;20056;-66
2023/12/01 04:47:07;;;;;;;21.85;13.13;;;1.10;99.90;;;;;;5036700;28;20111;-66
2023/12/01 04:49:34;;;;;;;23.50;13.25;;;1.10;99.90;;;;;;5036368;28;20420;-66
2023/12/01 04:52:06;;;;;;;21.73;12.73;;;1.10;99.90;;;;;;5053614;28;20045;-66
2023/12/01 04:54:38;;;;;;;24.42;13.80;;;1.10;99.90;;;;;;5039622;28;20386;-66
2023/12/01 04:57:09;;;;;;;23.08;14.02;;;1.10;99.90;;;;;;5024695;28;20052;-66
2023/12/01 04:59:41;;;;;;;22.98;13.95;;;1.10;99.90;;;;;;5040343;28;20044;-66
2023/12/01 05:02:08;;;;;;;22.08;13.30;;;1.10;99.90;;;;;;5059233;28;20037;-67
2023/12/01 05:04:35;;;;;;;24.08;12.80;;;1.10;99.90;;;;;;5040001;28;20037;-66
2023/12/01 05:07:07;;;;;;;21.33;13.82;;;1.10;99.90;;;;;;5052691;28;20037;-71
2023/12/01 05:09:41;;;;;;;19.17;11.88;;;1.10;99.90;;;;;;5052364;28;20420;-66
2023/12/01 05:12:13;;;;;;;20.33;12.65;;;1.10;99.90;;;;;;5051952;28;20036;-66
2023/12/01 05:14:40;;;;;;;22.15;12.90;;;1.00;99.90;;;;;;5055738;28;20037;-66
2023/12/01 05:17:12;;;;;;;21.52;13.27;;;1.00;99.90;;;;;;5066782;28;20033;-66
2023/12/01 05:19:39;;;;;;;20.17;12.98;;;1.00;99.90;;;;;;5031740;28;20056;-66
2023/12/01 05:22:10;;;;;;;17.55;11.98;;;1.00;99.90;;;;;;5042588;28;20075;-66
2023/12/01 05:24:38;;;;;;;17.50;11.50;;;1.00;99.90;;;;;;5043442;28;20036;-66
2023/12/01 05:27:09;;;;;;;18.63;11.48;;;1.00;99.90;;;;;;5045005;28;20102;-66
2023/12/01 05:29:36;;;;;;;44.35;25.05;;;1.00;99.90;;;;;;5060803;28;20051;-66
2023/12/01 05:32:08;;;;;;;123.25;67.22;;;1.00;99.90;;;;;;5038465;28;20068;-65
2023/12/01 05:34:35;;;;;;;34.90;21.75;;;1.00;99.90;;;;;;5051918;28;20045;-66
2023/12/01 05:37:02;;;;;;;55.05;31.20;;;1.00;99.90;;;;;;5062515;28;20040;-65
2023/12/01 05:39:29;;;;;;;69.53;37.85;;;1.00;99.90;;;;;;5033746;28;20033;-66
2023/12/01 05:42:01;;;;;;;158.40;78.35;;;1.00;99.90;;;;;;5055683;28;20408;-66
2023/12/01 05:44:27;;;;;;;60.25;32.78;;;1.00;99.90;;;;;;5022846;28;20128;-65
2023/12/01 05:46:59;;;;;;;61.75;32.35;;;1.00;99.90;;;;;;5047935;28;20048;-66
2023/12/01 05:49:31;;;;;;;30.77;19.25;;;1.10;99.90;;;;;;5052324;28;20073;-66
2023/12/01 05:52:03;;;;;;;26.70;16.15;;;1.10;99.90;;;;;;5053130;28;20083;-66
2023/12/01 05:54:35;;;;;;;29.83;17.27;;;1.10;99.90;;;;;;5039193;28;20731;-66
2023/12/01 05:57:08;;;;;;;23.33;13.85;;;1.10;99.90;;;;;;5052325;28;20130;-66
2023/12/01 05:59:34;;;;;;;19.83;13.25;;;1.10;99.90;;;;;;5056743;28;20037;-65
2023/12/01 06:02:11;;;;;;;23.75;14.10;;;1.00;99.90;;;;;;5055734;28;20033;-66
2023/12/01 06:04:42;;;;;;;23.30;14.05;;;1.00;99.90;;;;;;5037686;28;20051;-66
2023/12/01 06:07:14;;;;;;;21.40;14.52;;;1.10;99.90;;;;;;5035671;28;20060;-65
2023/12/01 06:09:47;;;;;;;24.65;15.55;;;1.10;99.90;;;;;;5021113;28;20044;-66
2023/12/01 06:12:19;;;;;;;20.33;13.55;;;1.10;99.90;;;;;;5031982;28;20033;-65
2023/12/01 06:14:51;;;;;;;18.23;12.85;;;1.10;99.90;;;;;;5049908;28;20091;-65
2023/12/01 06:17:23;;;;;;;19.40;12.55;;;1.10;99.90;;;;;;5020194;28;20508;-66
2023/12/01 06:19:55;;;;;;;19.48;12.57;;;1.00;99.90;;;;;;5053484;28;20049;-66
2023/12/01 06:22:27;;;;;;;19.60;13.07;;;1.00;99.90;;;;;;5039894;28;20045;-66
2023/12/01 06:24:59;;;;;;;20.30;12.27;;;1.00;99.90;;;;;;5027330;28;20036;-66
2023/12/01 06:27:30;;;;;;;25.60;14.63;;;1.00;99.90;;;;;;5044310;28;20072;-66
2023/12/01 06:30:04;;;;;;;31.05;18.95;;;1.00;99.90;;;;;;5058360;28;20046;-66
2023/12/01 06:32:36;;;;;;;28.95;17.17;;;1.00;99.90;;;;;;5040039;28;20628;-65
2023/12/01 06:35:11;;;;;;;28.83;17.65;;;1.10;99.90;;;;;;5053303;28;20033;-66
2023/12/01 06:37:44;;;;;;;24.42;15.82;;;1.00;99.90;;;;;;5031549;28;20649;-66
2023/12/01 06:40:12;;;;;;;27.90;17.08;;;1.00;99.90;;;;;;5050499;28;20119;-65
2023/12/01 06:42:49;;;;;;;25.50;14.48;;;1.10;99.90;;;;;;5029357;28;20049;-65
2023/12/01 06:45:26;;;;;;;21.48;13.18;;;1.00;99.90;;;;;;5032005;28;20098;-66
2023/12/01 06:47:53;;;;;;;22.23;13.77;;;1.00;99.90;;;;;;5043183;28;20060;-66
2023/12/01 06:50:26;;;;;;;19.27;12.40;;;1.00;99.90;;;;;;5017759;28;20505;-66
2023/12/01 06:53:00;;;;;;;35.35;18.67;;;1.00;99.90;;;;;;5055989;28;20036;-66
2023/12/01 06:55:32;;;;;;;21.83;13.93;;;0.90;99.90;;;;;;5012813;28;20210;-66
2023/12/01 06:58:03;;;;;;;20.02;11.55;;;1.00;99.90;;;;;;5054100;28;20047;-66
2023/12/01 07:00:36;;;;;;;18.85;12.93;;;0.90;99.90;;;;;;5040005;28;20045;-65
2023/12/01 07:03:08;;;;;;;22.65;12.77;;;0.90;99.90;;;;;;5037672;28;20059;-65
2023/12/01 07:05:43;;;;;;;20.75;13.68;;;0.90;99.90;;;;;;5054525;28;20056;-65
2023/12/01 07:08:15;;;;;;;21.23;13.40;;;0.90;99.90;;;;;;5034330;28;20044;-67
2023/12/01 07:10:47;;;;;;;20.17;12.80;;;0.90;99.90;;;;;;5034346;28;20045;-66
2023/12/01 07:13:19;;;;;;;24.40;14.30;;;0.90;99.90;;;;;;5054505;28;20065;-66
2023/12/01 07:15:51;;;;;;;26.00;17.65;;;0.90;99.90;;;;;;5032934;28;20094;-66
2023/12/01 07:18:26;;;;;;;23.83;15.65;;;0.90;99.90;;;;;;5021398;28;20516;-65
2023/12/01 07:20:58;;;;;;;21.30;14.73;;;0.90;99.90;;;;;;5038682;28;20406;-66
2023/12/01 07:23:30;;;;;;;19.00;13.13;;;0.90;99.90;;;;;;5030069;28;20136;-66
2023/12/01 07:26:01;;;;;;;19.70;13.85;;;1.00;99.90;;;;;;5056166;28;20041;-65
2023/12/01 07:28:33;;;;;;;21.58;14.13;;;1.00;99.90;;;;;;5043794;28;20044;-65
2023/12/01 07:31:05;;;;;;;20.08;12.80;;;1.00;99.90;;;;;;5040869;28;20132;-66
2023/12/01 07:33:37;;;;;;;21.13;13.77;;;1.00;99.90;;;;;;5056986;28;20390;-65
2023/12/01 07:36:09;;;;;;;19.48;12.65;;;1.00;99.90;;;;;;5053282;28;20507;-65
2023/12/01 07:38:41;;;;;;;17.52;12.55;;;1.00;99.90;;;;;;5036444;28;20048;-65
2023/12/01 07:41:12;;;;;;;19.10;12.95;;;1.00;99.90;;;;;;5046118;28;20409;-65
2023/12/01 07:43:44;;;;;;;18.67;13.35;;;1.10;99.90;;;;;;5041379;28;20664;-66
2023/12/01 07:46:16;;;;;;;19.60;12.85;;;1.10;99.90;;;;;;5052240;28;20621;-65
2023/12/01 07:48:48;;;;;;;18.83;13.10;;;1.10;99.90;;;;;;5041956;28;20115;-65
2023/12/01 07:51:20;;;;;;;20.60;13.02;;;1.10;99.90;;;;;;5049833;28;20136;-65
2023/12/01 07:53:51;;;;;;;18.88;11.77;;;1.20;99.90;;;;;;5041462;28;20518;-66
2023/12/01 07:56:23;;;;;;;16.77;11.27;;;1.20;99.90;;;;;;5038338;28;20049;-65
2023/12/01 07:58:55;;;;;;;18.27;12.38;;;1.30;99.90;;;;;;5057216;28;20052;-66
2023/12/01 08:01:27;;;;;;;16.02;11.90;;;1.30;99.90;;;;;;5039545;28;20072;-65
2023/12/01 08:03:58;;;;;;;17.40;12.18;;;1.30;99.90;;;;;;5055682;28;20033;-66
2023/12/01 08:06:30;;;;;;;17.38;11.02;;;1.30;99.90;;;;;;5037621;28;20040;-66
2023/12/01 08:08:58;;;;;;;17.73;11.65;;;1.30;99.90;;;;;;5035951;28;20459;-65
2023/12/01 08:11:30;;;;;;;17.42;11.88;;;1.40;99.90;;;;;;5038883;28;20053;-66
2023/12/01 08:14:03;;;;;;;17.27;12.15;;;1.40;99.90;;;;;;5026292;28;20064;-65
2023/12/01 08:16:35;;;;;;;17.63;10.90;;;1.40;99.90;;;;;;5015332;28;20057;-65
2023/12/01 08:19:09;;;;;;;16.55;11.75;;;1.40;99.90;;;;;;5034659;28;20072;-66
2023/12/01 08:21:41;;;;;;;15.90;11.73;;;1.50;99.90;;;;;;5032024;28;20203;-66
2023/12/01 08:24:13;;;;;;;19.48;13.85;;;1.50;99.90;;;;;;5053729;28;20037;-66
2023/12/01 08:26:47;;;;;;;18.60;13.93;;;1.50;99.90;;;;;;5040125;28;20037;-66
2023/12/01 08:29:19;;;;;;;24.60;15.55;;;1.60;99.90;;;;;;5016868;28;20125;-66
2023/12/01 08:31:51;;;;;;;26.70;17.08;;;1.60;99.90;;;;;;5055143;28;20048;-66
2023/12/01 08:34:23;;;;;;;24.80;16.27;;;1.60;99.90;;;;;;5060271;28;20040;-66
2023/12/01 08:36:55;;;;;;;16.92;11.80;;;1.60;99.90;;;;;;5041418;28;20049;-65
2023/12/01 08:39:28;;;;;;;17.17;12.40;;;1.60;99.90;;;;;;5020876;28;20060;-66
2023/12/01 08:41:59;;;;;;;16.23;12.18;;;1.70;99.90;;;;;;5046861;28;20415;-66
2023/12/01 08:44:31;;;;;;;18.05;12.00;;;1.80;99.90;;;;;;5049615;28;20094;-66
2023/12/01 08:47:03;;;;;;;17.02;11.98;;;1.70;99.90;;;;;;5071930;28;20051;-66
2023/12/01 08:49:35;;;;;;;21.63;13.82;;;1.70;99.90;;;;;;5067966;28;20033;-65
2023/12/01 08:52:02;;;;;;;31.25;18.70;;;1.70;99.90;;;;;;5067477;28;20045;-66
2023/12/01 08:54:34;;;;;;;31.95;19.08;;;1.70;99.90;;;;;;5064668;28;20040;-65
2023/12/01 08:57:06;;;;;;;28.13;17.70;;;1.70;99.90;;;;;;5062232;28;20088;-65
2023/12/01 08:59:38;;;;;;;35.10;19.15;;;1.70;99.90;;;;;;5059568;28;20045;-66
2023/12/01 09:02:10;;;;;;;28.27;16.98;;;1.70;99.90;;;;;;5029619;28;20056;-66
2023/12/01 09:04:42;;;;;;;24.95;15.30;;;1.70;99.90;;;;;;5039530;28;20037;-66
2023/12/01 09:07:13;;;;;;;20.27;13.15;;;1.70;99.90;;;;;;5039361;28;20055;-66
2023/12/01 09:09:45;;;;;;;18.98;13.10;;;1.80;99.90;;;;;;5033933;28;20045;-66
2023/12/01 09:12:12;;;;;;;20.95;13.30;;;1.80;99.90;;;;;;5055198;28;20037;-66
2023/12/01 09:14:44;;;;;;;20.75;13.05;;;1.70;99.90;;;;;;5037321;28;20052;-66
2023/12/01 09:17:16;;;;;;;15.57;10.93;;;1.80;99.90;;;;;;5051948;28;20048;-67
2023/12/01 09:19:43;;;;;;;14.88;10.40;;;1.80;99.90;;;;;;5059893;28;20116;-66
2023/12/01 09:22:10;;;;;;;17.13;11.25;;;1.80;99.90;;;;;;5055723;28;20045;-66
2023/12/01 09:24:37;;;;;;;14.30;10.38;;;1.90;99.90;;;;;;5060360;28;20033;-66
2023/12/01 09:27:08;;;;;;;14.32;10.32;;;2.10;99.90;;;;;;5064175;28;20033;-66
2023/12/01 09:29:40;;;;;;;11.93;9.20;;;2.40;99.90;;;;;;5061515;28;20109;-66
2023/12/01 09:32:13;;;;;;;17.13;10.00;;;2.50;99.90;;;;;;5059484;28;20052;-66
2023/12/01 09:34:39;;;;;;;14.63;9.68;;;2.50;99.90;;;;;;5042035;28;20037;-66
2023/12/01 09:37:12;;;;;;;14.27;9.52;;;2.50;99.90;;;;;;5057399;28;20045;-66
2023/12/01 09:39:44;;;;;;;14.10;9.77;;;2.50;99.90;;;;;;5039883;28;20062;-67
2023/12/01 09:42:11;;;;;;;13.63;10.10;;;2.70;99.90;;;;;;5055744;28;20409;-66
2023/12/01 09:44:43;;;;;;;12.02;9.55;;;2.70;99.90;;;;;;5033554;28;20049;-66
2023/12/01 09:47:17;;;;;;;15.15;10.40;;;2.90;99.90;;;;;;5033887;28;20501;-66
2023/12/01 09:49:48;;;;;;;17.38;12.80;;;3.00;99.90;;;;;;5039096;28;20037;-66
2023/12/01 09:52:15;;;;;;;22.83;14.15;;;3.10;99.90;;;;;;5036955;28;20137;-66
2023/12/01 09:54:47;;;;;;;19.98;14.57;;;3.10;99.90;;;;;;5039522;28;20141;-66
2023/12/01 09:57:16;;;;;;;21.00;14.50;;;3.10;99.90;;;;;;5039791;28;20043;-66
2023/12/01 09:59:49;;;;;;;19.95;15.20;;;3.10;99.90;;;;;;5054696;28;20044;-66
2023/12/01 10:02:16;;;;;;;20.65;14.50;;;3.10;99.90;;;;;;5056433;28;20039;-66
2023/12/01 10:04:48;;;;;;;19.73;13.73;;;3.10;99.90;;;;;;5025936;28;20824;-66
2023/12/01 10:07:19;;;;;;;17.55;13.02;;;3.00;99.90;;;;;;5044800;28;20051;-66
2023/12/01 10:09:51;;;;;;;19.10;12.27;;;2.80;99.90;;;;;;5040856;28;20533;-66
2023/12/01 10:12:18;;;;;;;16.70;10.23;;;2.60;99.90;;;;;;5055940;28;20846;-66
2023/12/01 10:14:50;;;;;;;19.55;13.65;;;2.50;99.90;;;;;;5036619;28;20064;-66
2023/12/01 10:17:27;;;;;;;17.05;12.63;;;2.50;99.90;;;;;;5029744;28;20136;-67
2023/12/01 10:19:54;;;;;;;19.83;14.13;;;2.40;99.90;;;;;;5056263;28;20048;-67
2023/12/01 10:22:24;;;;;;;21.70;14.77;;;2.30;99.90;;;;;;5064319;28;20040;-67
2023/12/01 10:24:57;;;;;;;16.48;12.80;;;2.20;99.90;;;;;;5046565;28;20045;-67
2023/12/01 10:27:24;;;;;;;17.80;13.00;;;2.10;99.90;;;;;;5037520;28;20045;-67
2023/12/01 10:30:14;;;;;;;15.38;12.05;;;2.00;99.90;;;;;;5056266;28;20520;-66
2023/12/01 10:32:47;;;;;;;42.03;21.83;;;2.00;99.90;;;;;;5040660;28;20037;-65
2023/12/01 10:35:18;;;;;;;31.23;17.70;;;1.90;99.90;;;;;;5055489;28;20776;-65
2023/12/01 10:37:47;;;;;;;37.03;19.55;;;2.00;99.90;;;;;;5062374;28;20037;-66
2023/12/01 10:40:16;;;;;;;19.65;12.27;;;2.00;99.90;;;;;;5060287;28;20037;-66
2023/12/01 10:42:50;;;;;;;19.83;11.95;;;2.00;99.90;;;;;;5043270;28;20037;-66
2023/12/01 10:45:22;;;;;;;18.65;11.02;;;2.00;99.90;;;;;;5058411;28;20612;-66
2023/12/01 10:47:56;;;;;;;19.60;9.90;;;2.00;99.90;;;;;;5036942;28;20037;-66
2023/12/01 10:50:28;;;;;;;15.40;10.77;;;2.00;99.90;;;;;;5055104;28;20416;-66
2023/12/01 10:53:02;;;;;;;12.32;9.52;;;2.00;99.90;;;;;;5035898;28;20046;-66
2023/12/01 10:55:34;;;;;;;14.38;11.52;;;2.00;99.90;;;;;;5034843;28;20067;-67
2023/12/01 10:58:06;;;;;;;16.17;11.00;;;2.10;99.90;;;;;;5054495;28;20069;-66
2023/12/01 11:00:37;;;;;;;14.60;11.10;;;2.10;99.90;;;;;;5023165;28;20145;-67
2023/12/01 11:03:08;;;;;;;19.35;13.02;;;2.10;99.90;;;;;;5056433;28;20043;-67
2023/12/01 11:05:41;;;;;;;17.77;12.45;;;2.10;99.90;;;;;;5059076;28;20505;-66
2023/12/01 11:08:41;;;;;;;13.88;9.30;;;2.10;99.90;;;;;;5059339;28;20044;-66
2023/12/01 11:11:13;;;;;;;16.00;10.32;;;2.10;99.90;;;;;;5036269;28;20851;-66
2023/12/01 11:14:09;;;;;;;15.68;9.98;;;2.10;99.90;;;;;;5054755;28;20518;-66
2023/12/01 11:16:36;;;;;;;15.23;9.77;;;2.10;99.90;;;;;;5040764;28;20416;-67
2023/12/01 11:19:09;;;;;;;15.25;9.70;;;2.10;99.90;;;;;;5051870;28;20048;-66
2023/12/01 11:21:42;;;;;;;13.32;9.18;;;2.10;99.90;;;;;;5051426;28;20523;-67
2023/12/01 11:24:32;;;;;;;17.92;9.40;;;2.10;99.90;;;;;;5043242;28;20043;-67
2023/12/01 11:27:05;;;;;;;11.30;8.38;;;2.10;99.90;;;;;;5056566;28;20068;-67
2023/12/01 11:29:37;;;;;;;11.07;7.65;;;2.10;99.90;;;;;;5055234;28;20041;-66
2023/12/01 11:32:09;;;;;;;11.52;8.48;;;2.10;99.90;;;;;;5052900;28;20040;-66
2023/12/01 11:35:06;;;;;;;15.98;10.02;;;2.00;99.90;;;;;;5041218;28;20136;-66
2023/12/01 11:38:00;;;;;;;13.52;8.95;;;2.00;99.90;;;;;;5056788;28;20512;-65
2023/12/01 11:40:39;;;;;;;11.65;8.50;;;2.00;99.90;;;;;;5033261;28;20046;-66
2023/12/01 11:43:08;;;;;;;12.93;8.18;;;2.10;99.90;;;;;;5062672;28;20040;-66
2023/12/01 11:45:41;;;;;;;12.38;8.68;;;2.10;99.90;;;;;;5036868;28;20048;-67
2023/12/01 11:48:13;;;;;;;19.67;13.52;;;2.00;99.90;;;;;;5020215;28;20072;-67
2023/12/01 11:50:40;;;;;;;17.27;11.10;;;2.10;99.90;;;;;;5061900;28;20039;-67
2023/12/01 11:53:13;;;;;;;14.43;9.68;;;2.10;99.90;;;;;;5047829;28;20072;-66
2023/12/01 11:55:40;;;;;;;14.45;10.68;;;2.10;99.90;;;;;;5048626;28;20037;-67
2023/12/01 11:58:17;;;;;;;17.05;10.48;;;2.10;99.90;;;;;;5054258;28;20123;-67
2023/12/01 12:00:51;;;;;;;13.27;9.90;;;2.10;99.90;;;;;;5041945;28;20045;-66
2023/12/01 12:03:21;;;;;;;14.27;9.88;;;2.10;99.90;;;;;;5056389;28;20037;-66
2023/12/01 12:05:54;;;;;;;14.68;10.80;;;2.10;99.90;;;;;;5022527;28;20044;-66
2023/12/01 12:08:26;;;;;;;13.90;9.50;;;2.10;99.90;;;;;;5055247;28;20029;-67
2023/12/01 12:10:59;;;;;;;14.52;9.45;;;2.10;99.90;;;;;;5045911;28;20051;-67
2023/12/01 12:13:31;;;;;;;14.68;9.90;;;2.10;99.90;;;;;;5054618;28;20037;-68
2023/12/01 12:16:03;;;;;;;13.25;9.43;;;2.10;99.90;;;;;;5057735;28;20201;-67
2023/12/01 12:18:35;;;;;;;19.00;10.77;;;2.00;99.90;;;;;;5037608;28;20429;-67
2023/12/01 12:21:08;;;;;;;17.15;11.07;;;2.00;99.90;;;;;;5037458;28;20535;-67
2023/12/01 12:23:40;;;;;;;17.45;11.05;;;2.00;99.90;;;;;;5056492;28;20417;-67
2023/12/01 12:26:18;;;;;;;14.98;10.15;;;2.00;99.90;;;;;;5052577;28;20041;-67
2023/12/01 12:28:58;;;;;;;19.52;10.77;;;2.00;99.90;;;;;;5036246;28;20041;-67
2023/12/01 12:31:28;;;;;;;18.70;11.63;;;2.00;99.90;;;;;;5058026;28;20040;-66
2023/12/01 12:34:01;;;;;;;17.33;10.35;;;2.00;99.90;;;;;;5046068;28;20057;-66
2023/12/01 12:36:30;;;;;;;19.95;12.75;;;1.90;99.90;;;;;;5063990;28;20036;-66
2023/12/01 12:39:04;;;;;;;22.33;12.65;;;2.00;99.90;;;;;;5060454;28;20049;-67
2023/12/01 12:41:39;;;;;;;20.80;12.63;;;1.90;99.90;;;;;;5034117;28;20036;-66
2023/12/01 12:44:13;;;;;;;20.88;12.40;;;1.90;99.90;;;;;;5059045;28;20043;-66
2023/12/01 12:46:59;;;;;;;22.67;14.43;;;1.90;99.90;;;;;;5032612;28;20033;-66
2023/12/01 12:49:34;;;;;;;22.02;13.40;;;1.90;99.90;;;;;;5059161;28;20572;-66
2023/12/01 12:52:06;;;;;;;22.02;13.32;;;1.90;99.90;;;;;;5031453;28;20045;-66
2023/12/01 12:54:40;;;;;;;21.98;12.98;;;1.90;99.90;;;;;;5058835;28;20052;-67
2023/12/01 12:57:07;;;;;;;24.05;15.35;;;1.80;99.90;;;;;;5034921;28;20132;-67
2023/12/01 12:59:39;;;;;;;26.67;17.23;;;1.90;99.90;;;;;;5039957;28;20038;-68
2023/12/01 13:02:10;;;;;;;24.45;15.50;;;1.80;99.90;;;;;;5057070;28;20094;-67
2023/12/01 13:04:42;;;;;;;25.15;15.52;;;1.90;99.90;;;;;;5060674;28;20043;-67